MUHA/HAV METAR and TAF weather

Enter ICAO airport designator
Station Type Date Time Source
MUHA METAR 2022/05/25 00:50 UTC NOAA

MUHA 250050Z 10005KT 9000 SCT040 26/24 Q1015


Station Type Date Time Source
MUHA Decoded METAR 2022/05/25 00:50 UTC NOAA

Aeropuerto Jose Marti, Rancho-Boyeros, Habana, Cuba (MUHA) 22-59N 082-24W 75M
May 24, 2022 - 08:50 PM EDT / 2022.05.25 0050 UTC
Wind: from the E (100 degrees) at 6 MPH (5 KT):0
Visibility: 5 mile(s):0
Sky conditions: partly cloudy
Temperature: 78 F (26 C)
Dew Point: 75 F (24 C)
Relative Humidity: 88%
Pressure (altimeter): 29.97 in. Hg (1015 hPa)
ob: MUHA 250050Z 10005KT 9000 SCT040 26/24 Q1015
cycle: 1

Station Type Date Time Source
MUHA TAF 2022/05/24 18:59 UTC NOAA

TAF MUHA 241700Z 2418/2518 VRB03KT 9000 BKN025
TEMPO 2419/2500 VRB10KT 3000 TSRA SCT020CB BKN025
BECMG 2503/2505 VRB03KT FEW030

Example: see airport list